Time;durP1;ratioP1;P1;durP2;ratioP2;P2;SDS_P1;SDS_P2;PMS_P1;PMS_P2;Temp;Humidity;BMP_temperature;BMP_pressure;BME280_temperature;BME280_humidity;BME280_pressure;Samples;Min_cycle;Max_cycle;Signal;HPM_P1;HPM_P2
2023/06/25 00:02:02;;;;;;;9.45;5.47;;;;;;;21.42;100.00;96661.69;5073667;28;20031;-85
2023/06/25 00:04:28;;;;;;;12.32;5.57;;;;;;;21.50;100.00;96649.94;5086677;28;20641;-84
2023/06/25 00:06:53;;;;;;;8.93;5.35;;;;;;;21.48;100.00;96654.66;5087942;28;20035;-85
2023/06/25 00:09:19;;;;;;;8.32;5.20;;;;;;;21.28;100.00;96652.09;5077047;28;20028;-83
2023/06/25 00:11:45;;;;;;;7.47;5.53;;;;;;;21.32;100.00;96655.97;5090081;28;20057;-85
2023/06/25 00:14:11;;;;;;;7.63;5.68;;;;;;;21.48;100.00;96649.31;5095834;28;20023;-84
2023/06/25 00:16:36;;;;;;;8.30;5.65;;;;;;;21.33;100.00;96648.81;5099814;28;20572;-85
2023/06/25 00:19:03;;;;;;;9.60;5.80;;;;;;;20.88;100.00;96647.00;5077239;28;20035;-84
2023/06/25 00:21:29;;;;;;;9.13;6.10;;;;;;;20.91;100.00;96645.75;5080045;28;20043;-84
2023/06/25 00:23:55;;;;;;;8.90;5.72;;;;;;;20.88;100.00;96641.66;5084618;28;20020;-84
2023/06/25 00:26:21;;;;;;;7.70;5.38;;;;;;;21.14;100.00;96645.22;5067322;28;20024;-84
2023/06/25 00:28:46;;;;;;;8.15;5.68;;;;;;;20.98;100.00;96649.22;5076919;28;20055;-84
2023/06/25 00:31:14;;;;;;;8.60;5.97;;;;;;;21.10;100.00;96639.47;5076913;28;21001;-84
2023/06/25 00:33:42;;;;;;;8.90;5.55;;;;;;;20.85;100.00;96644.75;5073254;28;20032;-84
2023/06/25 00:36:08;;;;;;;7.32;5.22;;;;;;;20.88;100.00;96638.97;5068685;28;20054;-84
2023/06/25 00:38:37;;;;;;;13.37;5.73;;;;;;;20.80;100.00;96644.59;5070745;28;20385;-84
2023/06/25 00:41:03;;;;;;;10.80;6.03;;;;;;;20.96;100.00;96645.94;5087354;28;20047;-85
2023/06/25 00:43:28;;;;;;;10.17;5.70;;;;;;;;;;5073820;28;20028;-83
2023/06/25 00:45:54;;;;;;;9.83;5.73;;;;;;;21.02;100.00;96645.06;5080156;28;20035;-85
2023/06/25 00:48:21;;;;;;;9.70;6.18;;;;;;;21.03;100.00;96640.56;5082097;28;20024;-85
2023/06/25 00:50:48;;;;;;;9.07;5.67;;;;;;;21.28;100.00;96638.72;5080980;28;20536;-84
2023/06/25 00:53:14;;;;;;;8.43;6.10;;;;;;;21.23;100.00;96635.91;5084145;28;20032;-84
2023/06/25 00:55:39;;;;;;;9.60;5.68;;;;;;;21.06;100.00;96635.59;5071004;28;20054;-85
2023/06/25 00:58:06;;;;;;;8.17;5.60;;;;;;;21.39;100.00;96631.88;5103127;27;20049;-85
2023/06/25 01:00:33;;;;;;;10.48;6.40;;;;;;;21.29;100.00;96629.66;5087933;28;20024;-85
2023/06/25 01:03:26;;;;;;;9.43;5.97;;;;;;;21.31;100.00;96626.78;5076444;28;20161;-85
2023/06/25 01:06:14;;;;;;;9.17;5.37;;;;;;;21.38;100.00;96630.25;5094419;28;20059;-85
2023/06/25 01:08:49;;;;;;;7.93;5.20;;;;;;;21.31;100.00;96627.59;5091311;28;20034;-85
2023/06/25 01:11:15;;;;;;;8.43;5.33;;;;;;;21.07;100.00;96625.72;5079864;28;20047;-85
2023/06/25 01:13:40;;;;;;;8.03;5.63;;;;;;;21.18;100.00;96620.47;5070317;28;20085;-85
2023/06/25 01:16:06;;;;;;;8.85;5.55;;;;;;;21.27;100.00;96613.03;5091142;28;20115;-84
2023/06/25 01:18:32;;;;;;;9.20;5.78;;;;;;;21.03;100.00;96613.81;5080735;28;20019;-85
2023/06/25 01:21:00;;;;;;;8.33;5.70;;;;;;;21.17;100.00;96610.00;5080485;28;20028;-85
2023/06/25 01:23:28;;;;;;;8.35;5.78;;;;;;;21.08;100.00;96605.97;5088780;28;20028;-85
2023/06/25 01:25:53;;;;;;;8.75;6.20;;;;;;;20.94;100.00;96614.06;5096900;28;20023;-85
2023/06/25 01:28:20;;;;;;;8.48;5.45;;;;;;;21.14;100.00;96607.78;5099869;28;20027;-85
2023/06/25 01:30:52;;;;;;;9.43;6.22;;;;;;;21.20;100.00;96604.25;5087132;28;20023;-84
2023/06/25 01:33:22;;;;;;;8.00;5.53;;;;;;;21.15;100.00;96601.38;5078877;28;20089;-85
2023/06/25 01:35:48;;;;;;;12.60;6.37;;;;;;;21.07;100.00;96604.31;5067564;28;20035;-85
2023/06/25 01:38:14;;;;;;;8.67;6.00;;;;;;;21.02;100.00;96606.81;5082268;28;20016;-86
2023/06/25 01:40:40;;;;;;;8.20;6.53;;;;;;;21.16;100.00;96606.53;5087654;28;20054;-85
2023/06/25 01:43:08;;;;;;;8.27;5.72;;;;;;;21.15;100.00;96606.72;5096280;28;20015;-85
2023/06/25 01:45:38;;;;;;;7.97;5.43;;;;;;;21.12;100.00;96591.09;5113200;28;20059;-85
2023/06/25 01:48:04;;;;;;;7.83;5.67;;;;;;;20.91;100.00;96594.97;5075826;28;20457;-85
2023/06/25 01:50:30;;;;;;;9.95;5.97;;;;;;;21.03;100.00;96592.44;5074724;28;20020;-85
2023/06/25 01:52:56;;;;;;;8.40;5.73;;;;;;;20.98;100.00;96601.09;5080222;28;20024;-85
2023/06/25 01:55:21;;;;;;;8.60;5.37;;;;;;;20.62;100.00;96596.34;5076477;28;20020;-85
2023/06/25 01:57:47;;;;;;;8.20;5.77;;;;;;;20.96;100.00;96592.47;5076003;28;20019;-86
2023/06/25 02:00:13;;;;;;;9.15;5.85;;;;;;;20.76;100.00;96586.41;5078688;28;20019;-85
2023/06/25 02:02:47;;;;;;;8.87;5.57;;;;;;;20.95;100.00;96586.28;5093961;28;20110;-86
2023/06/25 02:05:13;;;;;;;9.60;5.80;;;;;;;21.10;100.00;96587.84;5072494;28;20020;-85
2023/06/25 02:07:38;;;;;;;7.53;5.13;;;;;;;21.14;100.00;96578.34;5079702;28;20031;-86
2023/06/25 02:10:05;;;;;;;9.13;6.17;;;;;;;20.95;100.00;96580.94;5074084;28;20020;-85
2023/06/25 02:12:30;;;;;;;8.87;6.03;;;;;;;20.79;100.00;96586.81;5081118;28;20534;-85
2023/06/25 02:14:56;;;;;;;8.93;5.80;;;;;;;20.74;100.00;96578.63;5074056;28;20023;-85
2023/06/25 02:17:22;;;;;;;11.10;6.00;;;;;;;20.72;100.00;96575.34;5095198;28;20381;-85
2023/06/25 02:19:53;;;;;;;8.93;6.17;;;;;;;20.63;100.00;96579.31;5079682;27;20027;-85
2023/06/25 02:22:19;;;;;;;12.00;5.47;;;;;;;20.75;100.00;96574.91;5085268;28;20015;-85
2023/06/25 02:24:44;;;;;;;8.50;5.80;;;;;;;20.74;100.00;96588.50;5100948;28;20057;-86
2023/06/25 02:27:11;;;;;;;9.23;6.03;;;;;;;20.64;100.00;96586.28;5083206;28;20039;-85
2023/06/25 02:29:36;;;;;;;9.37;6.10;;;;;;;20.66;100.00;96582.38;5073609;28;20019;-85
2023/06/25 02:32:02;;;;;;;9.20;6.53;;;;;;;20.69;100.00;96579.28;5092519;28;20085;-85
2023/06/25 02:34:27;;;;;;;8.30;5.90;;;;;;;20.48;100.00;96580.34;5079120;28;20028;-85
2023/06/25 02:36:53;;;;;;;9.53;6.17;;;;;;;20.72;100.00;96583.34;5077820;27;20491;-85
2023/06/25 02:39:29;;;;;;;9.47;6.37;;;;;;;20.78;100.00;96579.81;5089772;28;20023;-85
2023/06/25 02:41:54;;;;;;;8.10;5.63;;;;;;;20.83;100.00;96573.84;5080229;28;20067;-85
2023/06/25 02:44:20;;;;;;;8.20;6.10;;;;;;;20.82;100.00;96564.97;5076027;28;20050;-85
2023/06/25 02:46:46;;;;;;;9.30;5.80;;;;;;;20.69;100.00;96570.41;5077492;28;20065;-85
2023/06/25 02:49:19;;;;;;;8.53;6.17;;;;;;;20.70;100.00;96567.53;5076540;28;20477;-85
2023/06/25 02:51:45;;;;;;;7.78;5.70;;;;;;;20.79;100.00;96565.44;5075961;28;20053;-85
2023/06/25 02:54:14;;;;;;;11.00;6.83;;;;;;;20.64;100.00;96567.56;5078945;28;20031;-85
2023/06/25 02:56:40;;;;;;;10.20;6.37;;;;;;;20.61;100.00;96574.16;5093392;28;20038;-86
2023/06/25 02:59:05;;;;;;;9.03;5.73;;;;;;;20.36;100.00;96565.25;5095098;28;20024;-85
2023/06/25 03:01:31;;;;;;;8.77;6.17;;;;;;;20.48;100.00;96564.31;5078823;28;20020;-85
2023/06/25 03:03:57;;;;;;;8.63;6.37;;;;;;;20.65;100.00;96558.53;5081421;28;20019;-85
2023/06/25 03:06:30;;;;;;;10.30;5.93;;;;;;;20.74;100.00;96559.91;5076970;28;20030;-85
2023/06/25 03:08:55;;;;;;;9.57;6.38;;;;;;;20.58;100.00;96557.75;5092878;28;20020;-85
2023/06/25 03:11:28;;;;;;;9.13;5.90;;;;;;;20.58;100.00;96560.41;5075612;28;20024;-85
2023/06/25 03:13:54;;;;;;;9.07;5.95;;;;;;;20.65;100.00;96553.19;5075568;28;20024;-85
2023/06/25 03:16:19;;;;;;;9.70;6.03;;;;;;;20.65;100.00;96553.19;5075722;28;20042;-85
2023/06/25 03:18:45;;;;;;;9.70;6.20;;;;;;;20.63;100.00;96545.38;5075597;28;20023;-85
2023/06/25 03:21:10;;;;;;;9.40;6.60;;;;;;;20.48;100.00;96558.16;5082823;28;20016;-84
2023/06/25 03:23:36;;;;;;;11.10;6.47;;;;;;;20.66;100.00;96555.66;5092877;28;20023;-85
2023/06/25 03:26:02;;;;;;;9.87;6.07;;;;;;;20.64;100.00;96554.22;5079406;28;20042;-85
2023/06/25 03:28:28;;;;;;;8.63;5.83;;;;;;;20.58;100.00;96553.22;5074853;28;20036;-84
2023/06/25 03:30:58;;;;;;;8.73;5.80;;;;;;;20.57;100.00;96545.44;5063562;28;20020;-84
2023/06/25 03:33:24;;;;;;;9.03;6.60;;;;;;;20.71;100.00;96547.78;5078540;28;20016;-85
2023/06/25 03:35:49;;;;;;;9.93;6.20;;;;;;;20.66;100.00;96542.28;5074410;28;20016;-85
2023/06/25 03:38:15;;;;;;;8.07;5.80;;;;;;;20.57;100.00;96545.44;5079269;28;20020;-84
2023/06/25 03:40:41;;;;;;;7.80;5.60;;;;;;;20.55;100.00;96542.94;5075484;28;20068;-85
2023/06/25 03:43:07;;;;;;;10.03;5.93;;;;;;;20.59;100.00;96543.34;5072453;28;20051;-85
2023/06/25 03:45:35;;;;;;;8.87;6.20;;;;;;;20.76;100.00;96541.81;5095747;28;20031;-85
2023/06/25 03:48:04;;;;;;;8.20;5.83;;;;;;;20.55;100.00;96537.59;5091543;28;20028;-84
2023/06/25 03:50:30;;;;;;;10.07;5.67;;;;;;;20.79;100.00;96536.03;5095892;28;20024;-84
2023/06/25 03:52:56;;;;;;;10.23;6.30;;;;;;;20.82;100.00;96526.75;5100676;28;20034;-85
2023/06/25 03:55:21;;;;;;;10.13;6.13;;;;;;;20.62;100.00;96527.72;5079784;28;20020;-85
2023/06/25 03:57:47;;;;;;;8.63;5.90;;;;;;;20.56;100.00;96533.09;5078387;28;20084;-85
2023/06/25 04:00:13;;;;;;;8.27;5.73;;;;;;;20.58;100.00;96528.34;5080103;28;20031;-85
2023/06/25 04:02:39;;;;;;;8.47;5.93;;;;;;;20.74;100.00;96519.81;5093038;28;20538;-85
2023/06/25 04:05:05;;;;;;;10.00;6.13;;;;;;;20.51;100.00;96528.38;5064135;28;20038;-85
2023/06/25 04:07:32;;;;;;;9.53;5.90;;;;;;;20.66;100.00;96528.13;5089274;28;20583;-85
2023/06/25 04:09:57;;;;;;;8.70;6.20;;;;;;;20.75;100.00;96525.97;5079166;28;20023;-86
2023/06/25 04:12:24;;;;;;;8.83;6.00;;;;;;;20.73;100.00;96528.88;5076248;28;20114;-85
2023/06/25 04:14:49;;;;;;;11.03;6.17;;;;;;;20.70;100.00;96523.97;5072950;28;20023;-85
2023/06/25 04:17:15;;;;;;;8.90;6.03;;;;;;;20.55;100.00;96520.75;5093815;28;20031;-85
2023/06/25 04:19:42;;;;;;;10.30;7.30;;;;;;;20.40;100.00;96526.38;5076690;28;20081;-85
2023/06/25 04:22:08;;;;;;;8.00;5.30;;;;;;;20.83;100.00;96515.03;5079588;28;20024;-85
2023/06/25 04:24:39;;;;;;;10.10;6.23;;;;;;;20.71;100.00;96514.91;5083193;28;20027;-85
2023/06/25 04:27:05;;;;;;;9.30;6.03;;;;;;;21.14;100.00;96514.16;5094374;27;20487;-85
2023/06/25 04:29:31;;;;;;;8.53;5.97;;;;;;;21.06;100.00;96509.06;5096698;28;20024;-84
2023/06/25 04:32:03;;;;;;;10.10;6.43;;;;;;;21.02;100.00;96513.22;5090699;27;20042;-85
2023/06/25 04:34:31;;;;;;;9.90;6.20;;;;;;;21.28;100.00;96520.22;5094372;28;20028;-85
2023/06/25 04:36:57;;;;;;;8.53;6.10;;;;;;;21.28;100.00;96520.22;5079038;28;20024;-85
2023/06/25 04:39:22;;;;;;;8.23;5.97;;;;;;;21.49;100.00;96517.16;5085646;28;20034;-85
2023/06/25 04:41:48;;;;;;;8.47;5.53;;;;;;;21.50;100.00;96512.66;5067646;28;20550;-85
2023/06/25 04:44:16;;;;;;;10.00;6.30;;;;;;;21.44;100.00;96513.53;5086666;28;20016;-84
2023/06/25 04:46:41;;;;;;;8.93;5.70;;;;;;;21.24;100.00;96514.50;5088349;28;20024;-84
2023/06/25 04:49:07;;;;;;;13.50;6.43;;;;;;;21.16;100.00;96510.25;5081091;28;20253;-84
2023/06/25 04:51:34;;;;;;;9.73;6.07;;;;;;;21.77;100.00;96503.28;5102309;27;20019;-85
2023/06/25 04:54:00;;;;;;;9.03;6.33;;;;;;;21.80;100.00;96507.38;5109466;28;20065;-85
2023/06/25 04:56:25;;;;;;;9.37;6.53;;;;;;;21.77;100.00;96514.00;5096183;28;20032;-84
2023/06/25 04:58:51;;;;;;;8.90;6.05;;;;;;;21.82;100.00;96510.63;5087254;28;20107;-85
2023/06/25 05:01:16;;;;;;;9.40;6.25;;;;;;;21.85;100.00;96516.38;5113260;28;20052;-84
2023/06/25 05:03:42;;;;;;;9.00;6.38;;;;;;;22.09;100.00;96513.81;5080675;28;20023;-86
2023/06/25 05:06:09;;;;;;;8.73;5.78;;;;;;;22.03;100.00;96515.56;5096779;28;20461;-86
2023/06/25 05:08:35;;;;;;;12.73;6.85;;;;;;;21.94;100.00;96518.75;5104664;28;20024;-86
2023/06/25 05:11:00;;;;;;;12.32;6.60;;;;;;;22.16;100.00;96516.44;5076452;28;20028;-86
2023/06/25 05:13:29;;;;;;;8.00;5.55;;;;;;;22.34;100.00;96517.25;5082504;28;20389;-86
2023/06/25 05:16:02;;;;;;;9.25;6.18;;;;;;;22.80;100.00;96520.28;5095811;28;20031;-85
2023/06/25 05:18:29;;;;;;;9.65;6.18;;;;;;;22.90;100.00;96517.06;5113284;28;20030;-86
2023/06/25 05:20:54;;;;;;;9.60;6.95;;;;;;;22.79;100.00;96511.44;5101886;28;20033;-86
2023/06/25 05:23:20;;;;;;;9.57;6.00;;;;;;;23.08;100.00;96516.19;5080332;28;20023;-84
2023/06/25 05:25:46;;;;;;;8.60;6.60;;;;;;;23.49;97.56;96512.59;5086988;28;20031;-85
2023/06/25 05:28:11;;;;;;;9.82;5.90;;;;;;;23.36;97.73;96513.63;5091347;27;20031;-85
2023/06/25 05:30:37;;;;;;;12.43;7.22;;;;;;;23.49;97.35;96510.72;5099409;27;20047;-85
2023/06/25 05:33:02;;;;;;;9.80;6.65;;;;;;;23.67;97.09;96517.00;5097744;28;20028;-85
2023/06/25 05:35:31;;;;;;;9.77;6.22;;;;;;;24.10;97.14;96505.84;5080402;28;20081;-85
2023/06/25 05:37:57;;;;;;;8.88;6.30;;;;;;;24.10;95.34;96510.44;5088744;28;20023;-86
2023/06/25 05:40:29;;;;;;;9.88;6.25;;;;;;;24.64;92.82;96511.75;5090216;28;20030;-86
2023/06/25 05:42:55;;;;;;;9.98;6.70;;;;;;;24.72;90.24;96512.44;5095740;28;20033;-85
2023/06/25 05:45:21;;;;;;;12.57;6.70;;;;;;;24.56;91.46;96504.09;5068216;28;20024;-84
2023/06/25 05:47:47;;;;;;;9.52;6.75;;;;;;;25.09;89.46;96518.19;5074512;28;20078;-85
2023/06/25 05:50:12;;;;;;;8.27;6.32;;;;;;;25.16;88.20;96510.78;5097398;28;20473;-83
2023/06/25 05:52:41;;;;;;;9.57;6.15;;;;;;;25.25;87.33;96521.94;5079627;28;20081;-84
2023/06/25 05:55:07;;;;;;;7.97;6.00;;;;;;;25.28;87.36;96506.13;5097672;28;20036;-86
2023/06/25 05:57:32;;;;;;;9.48;7.00;;;;;;;25.83;79.03;96499.94;5077348;28;20032;-85
2023/06/25 05:59:58;;;;;;;9.35;6.47;;;;;;;26.06;77.00;96504.28;5081435;27;20039;-86
2023/06/25 06:02:23;;;;;;;8.95;6.35;;;;;;;26.73;77.01;96495.06;5088920;27;20050;-85
2023/06/25 06:04:49;;;;;;;8.60;6.72;;;;;;;26.69;78.71;96503.91;5077978;28;20031;-85
2023/06/25 06:07:15;;;;;;;9.55;6.35;;;;;;;27.23;73.72;96510.09;5086734;28;20077;-85
2023/06/25 06:09:40;;;;;;;9.63;6.32;;;;;;;27.60;75.09;96508.41;5093912;28;20050;-85
2023/06/25 06:12:06;;;;;;;9.23;6.88;;;;;;;26.97;77.94;96511.72;5077030;28;20104;-85
2023/06/25 06:14:34;;;;;;;9.88;6.85;;;;;;;27.69;70.42;96501.47;5098180;28;20432;-83
2023/06/25 06:17:00;;;;;;;9.88;6.38;;;;;;;27.09;76.35;96508.84;5092345;28;20071;-86
2023/06/25 06:19:26;;;;;;;8.48;6.35;;;;;;;28.33;68.32;96497.72;5085944;28;20119;-85
2023/06/25 06:21:51;;;;;;;8.80;5.70;;;;;;;28.07;67.06;96494.09;5093547;27;20434;-86
2023/06/25 06:24:17;;;;;;;8.80;6.07;;;;;;;27.83;67.59;96491.03;5077605;28;20031;-85
2023/06/25 06:26:42;;;;;;;10.13;6.80;;;;;;;28.43;61.28;96495.88;5093825;27;20031;-85
2023/06/25 06:29:08;;;;;;;8.15;6.80;;;;;;;28.80;61.07;96494.84;5098089;27;20077;-86
2023/06/25 06:31:33;;;;;;;10.55;7.03;;;;;;;28.47;62.46;96496.19;5096338;27;20489;-86
2023/06/25 06:33:59;;;;;;;8.57;6.45;;;;;;;28.98;56.12;96496.25;5073718;28;20030;-85
2023/06/25 06:36:24;;;;;;;9.88;7.07;;;;;;;29.40;56.43;96499.78;5086077;27;20030;-85
2023/06/25 06:39:06;;;;;;;13.68;6.38;;;;;;;29.95;55.41;96492.66;5093621;28;20444;-85
2023/06/25 06:41:32;;;;;;;9.30;6.88;;;;;;;30.49;52.47;96486.44;5077731;28;20062;-85
2023/06/25 06:44:16;;;;;;;9.45;6.32;;;;;;;30.63;50.60;96492.88;5072778;28;20055;-85
2023/06/25 06:46:42;;;;;;;9.27;7.05;;;;;;;30.17;50.65;96490.38;5078143;28;20073;-85
2023/06/25 06:49:08;;;;;;;8.95;6.80;;;;;;;31.42;46.21;96495.56;5076543;28;20052;-85
2023/06/25 06:51:36;;;;;;;11.05;6.45;;;;;;;30.98;44.66;96496.44;5093191;27;20025;-86
2023/06/25 06:54:02;;;;;;;10.07;6.90;;;;;;;31.19;44.40;96495.22;5105049;28;20076;-85
2023/06/25 06:56:27;;;;;;;12.27;7.63;;;;;;;31.28;43.21;96494.56;5075227;28;20751;-85
2023/06/25 06:58:53;;;;;;;8.27;6.80;;;;;;;31.56;42.74;96493.81;5076365;28;20019;-86
2023/06/25 07:01:18;;;;;;;10.88;6.63;;;;;;;32.06;41.07;96497.09;5084229;28;20023;-86
2023/06/25 07:03:47;;;;;;;9.52;6.65;;;;;;;31.77;37.93;96496.31;5093094;28;20026;-86
2023/06/25 07:06:13;;;;;;;8.40;6.63;;;;;;;32.80;35.68;96493.97;5093191;28;20016;-85
2023/06/25 07:08:39;;;;;;;9.55;6.82;;;;;;;32.71;37.12;96495.72;5047516;28;20044;-86
2023/06/25 07:11:07;;;;;;;9.57;6.40;;;;;;;32.38;35.98;96498.31;5097240;28;20061;-86
2023/06/25 07:13:33;;;;;;;8.70;6.90;;;;;;;33.45;34.50;96494.00;5075779;28;20019;-85
2023/06/25 07:15:59;;;;;;;10.88;6.80;;;;;;;34.33;32.22;96491.25;5107923;28;20426;-85
2023/06/25 07:18:24;;;;;;;8.45;6.32;;;;;;;32.87;34.21;96505.28;5091442;28;20027;-86
2023/06/25 07:20:50;;;;;;;8.70;6.32;;;;;;;31.57;36.17;96500.06;5084029;28;20019;-86
2023/06/25 07:23:16;;;;;;;8.88;6.65;;;;;;;32.88;34.27;96496.00;5095453;28;20053;-85
2023/06/25 07:25:42;;;;;;;8.18;6.30;;;;;;;34.38;31.63;96488.44;5092627;28;20027;-86
2023/06/25 07:28:09;;;;;;;8.43;6.57;;;;;;;33.30;32.22;96502.44;5082444;28;20023;-86
2023/06/25 07:30:35;;;;;;;8.15;6.45;;;;;;;34.05;31.65;96495.13;5099378;27;20031;-86
2023/06/25 07:33:00;;;;;;;10.75;7.05;;;;;;;34.80;29.73;96493.81;5079899;28;20069;-86
2023/06/25 07:35:26;;;;;;;8.43;6.57;;;;;;;33.71;31.36;96496.31;5066333;28;20038;-86
2023/06/25 07:37:52;;;;;;;9.45;6.60;;;;;;;34.42;31.51;96494.88;5075714;28;20110;-87
2023/06/25 07:40:17;;;;;;;8.40;6.57;;;;;;;35.39;29.85;96486.38;5081009;28;20022;-87
2023/06/25 07:42:43;;;;;;;8.70;6.65;;;;;;;35.46;30.22;96488.69;5087053;28;20139;-87
2023/06/25 07:45:09;;;;;;;8.32;6.55;;;;;;;34.03;30.78;96490.78;5093290;28;20049;-86
2023/06/25 07:47:39;;;;;;;8.32;6.93;;;;;;;35.76;29.62;96487.09;5084797;28;20020;-86
2023/06/25 07:50:06;;;;;;;8.63;6.80;;;;;;;34.75;30.40;96492.00;5087002;28;20009;-86
2023/06/25 07:52:31;;;;;;;8.68;6.32;;;;;;;34.75;30.43;96492.00;5088803;28;20032;-87
2023/06/25 07:54:57;;;;;;;8.90;6.75;;;;;;;34.32;29.30;96497.84;5102699;28;20080;-87
2023/06/25 07:57:22;;;;;;;7.90;6.63;;;;;;;34.44;30.06;96489.94;5083249;28;20023;-87
2023/06/25 07:59:48;;;;;;;8.20;6.60;;;;;;;35.05;27.46;96482.31;5088071;28;20038;-87
2023/06/25 08:02:14;;;;;;;7.85;6.50;;;;;;;35.96;27.37;96480.25;5085773;28;20024;-86
2023/06/25 08:04:39;;;;;;;155.20;117.20;;;;;;;34.89;28.24;96483.75;5080750;28;20374;-86
2023/06/25 08:07:13;;;;;;;10.60;8.65;;;;;;;35.47;27.51;96476.59;5077787;28;20027;-87
2023/06/25 08:09:38;;;;;;;8.25;6.05;;;;;;;35.84;26.72;96480.84;5097856;28;20175;-87
2023/06/25 08:12:04;;;;;;;8.02;6.38;;;;;;;35.43;27.65;96474.50;5085877;28;20497;-86
2023/06/25 08:14:30;;;;;;;7.20;5.70;;;;;;;35.35;26.77;96478.00;5095308;28;20103;-87
2023/06/25 08:16:56;;;;;;;7.97;5.72;;;;;;;35.95;27.49;96482.19;5083600;28;20020;-86
2023/06/25 08:19:21;;;;;;;7.90;6.18;;;;;;;36.32;26.60;96478.13;5103549;28;20568;-87
2023/06/25 08:21:47;;;;;;;7.05;5.55;;;;;;;35.49;26.85;96479.84;5096302;27;20500;-86
2023/06/25 08:24:12;;;;;;;9.80;6.43;;;;;;;36.17;26.16;96480.50;5083278;28;20015;-88
2023/06/25 08:26:38;;;;;;;6.72;5.55;;;;;;;36.04;25.79;96477.56;5085633;28;20027;-89
2023/06/25 08:29:04;;;;;;;7.65;6.43;;;;;;;35.97;25.79;96481.84;5103152;27;20023;-88
2023/06/25 08:31:29;;;;;;;8.07;6.40;;;;;;;34.25;29.15;96481.06;5091916;28;20019;-87
2023/06/25 08:33:55;;;;;;;7.22;5.80;;;;;;;36.17;26.13;96473.09;5085690;28;20463;-87
2023/06/25 08:36:21;;;;;;;7.28;5.60;;;;;;;34.27;27.84;96484.28;5083372;28;20020;-86
2023/06/25 08:38:48;;;;;;;8.48;5.47;;;;;;;35.45;27.46;96476.09;5095962;28;20503;-87
2023/06/25 08:41:14;;;;;;;7.20;5.05;;;;;;;35.16;27.29;96480.94;5081380;28;20472;-86
2023/06/25 08:43:40;;;;;;;8.98;5.45;;;;;;;33.80;26.69;96494.47;5084777;27;20042;-83
2023/06/25 08:46:07;;;;;;;6.97;5.07;;;;;;;34.37;25.62;96481.34;5107929;28;20389;-83
2023/06/25 08:48:35;;;;;;;6.50;4.80;;;;;;;33.92;26.64;96481.16;5080211;28;20538;-82
2023/06/25 08:51:15;;;;;;;7.45;5.07;;;;;;;34.77;25.96;96484.28;5074205;28;20028;-83
2023/06/25 08:53:41;;;;;;;6.35;4.85;;;;;;;35.09;25.98;96485.22;5076395;27;20473;-83
2023/06/25 08:56:08;;;;;;;8.77;5.47;;;;;;;34.72;26.11;96478.97;5104806;28;20023;-83
2023/06/25 08:58:35;;;;;;;6.93;4.32;;;;;;;32.73;28.00;96493.50;5085379;28;20481;-82
2023/06/25 09:01:02;;;;;;;6.60;4.78;;;;;;;34.60;26.56;96481.41;5090844;28;20646;-83
2023/06/25 09:03:27;;;;;;;5.68;4.50;;;;;;;34.58;26.97;96486.41;5095914;28;20015;-83
2023/06/25 09:05:55;;;;;;;6.65;4.32;;;;;;;32.91;28.53;96486.44;5097002;27;20026;-83
2023/06/25 09:08:22;;;;;;;8.07;4.88;;;;;;;33.15;29.40;96481.72;5094800;28;20055;-82
2023/06/25 09:10:53;;;;;;;7.10;4.75;;;;;;;34.46;28.65;96476.78;5093126;28;20024;-83
2023/06/25 09:13:26;;;;;;;6.60;4.43;;;;;;;34.48;28.89;96471.81;5093535;28;20070;-83
2023/06/25 09:16:00;;;;;;;6.35;4.82;;;;;;;35.22;28.11;96478.88;5078339;28;20028;-83
2023/06/25 09:18:25;;;;;;;7.00;4.88;;;;;;;34.13;29.35;96470.66;5111148;28;20084;-83
2023/06/25 09:20:51;;;;;;;6.47;4.90;;;;;;;34.11;29.65;96483.00;5074778;28;20427;-82
2023/06/25 09:23:21;;;;;;;8.23;4.32;;;;;;;33.84;30.21;96473.69;5093155;28;20012;-83
2023/06/25 09:25:54;;;;;;;7.15;5.25;;;;;;;33.32;30.40;96476.50;5088598;28;20031;-82
2023/06/25 09:28:20;;;;;;;6.63;5.00;;;;;;;34.32;30.12;96475.19;5100182;28;20054;-82
2023/06/25 09:30:56;;;;;;;6.72;4.60;;;;;;;35.23;28.75;96480.50;5118750;27;20380;-82
2023/06/25 09:33:35;;;;;;;6.40;4.80;;;;;;;36.06;28.39;96460.81;5091193;28;20051;-83
2023/06/25 09:36:03;;;;;;;8.75;5.50;;;;;;;36.64;27.07;96461.59;5099864;27;20076;-83
2023/06/25 09:38:29;;;;;;;6.03;4.45;;;;;;;36.50;27.26;96461.75;5088355;27;20507;-83
2023/06/25 09:40:58;;;;;;;6.88;4.53;;;;;;;36.54;27.33;96468.19;5079616;28;20039;-83
2023/06/25 09:43:32;;;;;;;6.97;4.38;;;;;;;36.17;27.03;96464.06;5084064;28;20026;-83
2023/06/25 09:46:00;;;;;;;5.30;4.25;;;;;;;34.45;28.45;96461.50;5093734;28;20031;-83
2023/06/25 09:48:26;;;;;;;5.80;4.45;;;;;;;35.93;27.51;96458.97;5111383;28;20028;-83
2023/06/25 09:50:58;;;;;;;5.72;4.22;;;;;;;34.64;27.84;96466.03;5086767;27;20049;-83
2023/06/25 09:53:28;;;;;;;6.35;4.80;;;;;;;34.22;28.67;96459.84;5096281;28;20416;-83
2023/06/25 09:55:55;;;;;;;8.13;5.13;;;;;;;35.96;27.97;96456.41;5070755;28;20611;-83
2023/06/25 09:58:21;;;;;;;8.27;4.60;;;;;;;35.62;27.67;96459.84;5073633;28;20027;-83
2023/06/25 10:00:47;;;;;;;6.00;4.50;;;;;;;35.00;27.89;96459.72;5105913;28;20439;-83
2023/06/25 10:03:15;;;;;;;6.18;4.75;;;;;;;35.19;27.10;96452.16;5070925;28;20432;-83
2023/06/25 10:05:42;;;;;;;6.40;5.20;;;;;;;35.74;26.33;96449.09;5077019;27;20035;-83
2023/06/25 10:08:08;;;;;;;6.43;4.78;;;;;;;34.70;27.94;96451.13;5109292;28;20039;-83
2023/06/25 10:11:01;;;;;;;6.57;4.72;;;;;;;35.04;27.17;96466.22;5076912;28;20473;-84
2023/06/25 10:13:29;;;;;;;6.88;4.90;;;;;;;35.69;27.25;96441.03;5093968;28;20023;-84
2023/06/25 10:16:03;;;;;;;6.65;4.38;;;;;;;36.37;27.42;96452.50;5074097;28;20023;-84
2023/06/25 10:18:29;;;;;;;6.65;4.20;;;;;;;34.91;27.73;96451.44;5108063;28;20040;-84
2023/06/25 10:20:58;;;;;;;7.00;5.03;;;;;;;34.20;28.46;96443.75;5078147;28;20070;-83
2023/06/25 10:23:26;;;;;;;7.35;5.00;;;;;;;36.01;26.70;96439.06;5110791;28;20019;-84
2023/06/25 10:25:59;;;;;;;5.80;4.43;;;;;;;36.81;25.79;96440.44;5093981;28;20076;-84
2023/06/25 10:28:29;;;;;;;5.20;3.78;;;;;;;36.77;24.73;96442.22;5090043;28;20019;-84
2023/06/25 10:30:59;;;;;;;8.38;5.43;;;;;;;34.60;27.41;96438.53;5089436;28;20021;-84
2023/06/25 10:33:28;;;;;;;7.00;4.65;;;;;;;33.28;29.07;96445.50;5084335;28;20054;-84
2023/06/25 10:35:55;;;;;;;6.32;4.78;;;;;;;33.73;27.71;96445.78;5083197;27;21257;-84
2023/06/25 10:38:22;;;;;;;5.63;4.15;;;;;;;33.46;27.81;96435.63;5075177;28;20032;-84
2023/06/25 10:40:50;;;;;;;5.90;4.30;;;;;;;33.34;28.60;96435.31;5092347;28;20035;-83
2023/06/25 10:43:19;;;;;;;6.85;4.28;;;;;;;35.46;26.42;96418.38;5074904;28;20027;-83
2023/06/25 10:45:56;;;;;;;5.72;4.05;;;;;;;35.73;26.19;96420.13;5071825;28;20027;-84
2023/06/25 10:48:23;;;;;;;7.18;4.50;;;;;;;35.77;26.82;96410.16;5089272;28;20024;-85
2023/06/25 10:50:52;;;;;;;5.85;4.25;;;;;;;35.86;26.49;96405.50;5075739;28;20623;-84
2023/06/25 10:53:21;;;;;;;11.68;4.35;;;;;;;35.52;26.95;96421.81;5090284;28;20603;-84
2023/06/25 10:55:48;;;;;;;5.90;4.55;;;;;;;35.26;26.29;96421.66;5074495;28;20363;-85
2023/06/25 10:58:16;;;;;;;6.72;4.45;;;;;;;34.39;27.62;96424.50;5089612;28;20047;-84
2023/06/25 11:00:42;;;;;;;6.07;4.55;;;;;;;34.12;28.21;96419.91;5090658;28;20038;-83
2023/06/25 11:03:12;;;;;;;7.53;4.40;;;;;;;35.98;25.87;96406.81;5073770;28;20043;-84
2023/06/25 11:05:42;;;;;;;6.50;4.72;;;;;;;34.14;28.27;96412.25;5095128;28;20035;-83
2023/06/25 11:08:18;;;;;;;5.72;4.15;;;;;;;35.15;26.45;96401.97;5078207;28;20035;-84
2023/06/25 11:10:46;;;;;;;5.63;4.20;;;;;;;34.09;27.11;96408.81;5097020;28;20024;-84
2023/06/25 11:13:12;;;;;;;6.03;4.10;;;;;;;35.22;26.30;96401.53;5078497;28;20039;-83
2023/06/25 11:15:41;;;;;;;6.25;4.70;;;;;;;35.31;25.99;96400.47;5073388;28;20028;-82
2023/06/25 11:18:10;;;;;;;5.70;3.83;;;;;;;35.45;24.78;96391.31;5112066;28;20074;-83
2023/06/25 11:20:41;;;;;;;6.30;4.63;;;;;;;35.39;26.56;96393.41;5096018;28;20063;-84
2023/06/25 11:23:10;;;;;;;6.57;4.68;;;;;;;35.18;26.34;96384.94;5097369;28;20008;-84
2023/06/25 11:25:36;;;;;;;5.35;4.00;;;;;;;35.97;25.84;96381.38;5094058;28;20094;-83
2023/06/25 11:28:07;;;;;;;6.78;4.25;;;;;;;35.83;26.00;96388.91;5102149;28;20027;-84
2023/06/25 11:30:33;;;;;;;5.75;3.85;;;;;;;35.87;24.82;96387.16;5093335;28;20102;-84